Oberon — SKJF — position and weather

sailwx.info

Track history (hours):
 
Tides and Currents Weather Stations Pressure Air Temp Water Temp Dewpoint Dewpoint Depression Visibility Wind Speed Wind Dir Waves Ship Positions

Oberon

Last reported at 2015-Jul-01 16:23 UTC. Time now 2015-Jul-08 00:06 UTC.
Position N 31°06' W 117°09'.

Length 232 m; draft 10.2 m.

Type: Cargo ship. MMSI: 266283000.

Date/timePositionNaut miles runAvg speedWind from/ knotsBaromVisibWave heightAir tempDewpointWater temp
2015-Jul-01 16:23N 31°06' W 117°09'1518.0
2015-Jul-01 15:33N 31°20' W 117°15'1918.5
2015-Jul-01 14:31N 31°38' W 117°23'1918.8
2015-Jul-01 13:32N 31°55' W 117°30'1919.3
2015-Jul-01 12:33N 32°13' W 117°38'1818.1
2015-Jul-01 11:33N 32°30' W 117°45'1615.5
2015-Jul-01 10:33N 32°45' W 117°51'1515.5
2015-Jul-01 09:33N 32°59' W 117°58'1212.1
2015-Jul-01 08:33N 33°11' W 118°02'1211.5
2015-Jul-01 07:34N 33°21' W 118°07'1211.5
2015-Jul-01 06:33N 33°32' W 118°12'1110.7
2015-Jul-01 05:33N 33°43' W 118°11'2 1.9
2015-Jul-01 04:31N 33°45' W 118°12'0 0.0
2015-Jul-01 03:31N 33°45' W 118°12'0 0.0
2015-Jul-01 02:31N 33°45' W 118°12'0 0.0
2015-Jul-01 01:31N 33°45' W 118°12'0 0.0
2015-Jul-01 00:31N 33°45' W 118°12'0 0.0
2015-Jun-30 23:31N 33°45' W 118°12'0 0.0
2015-Jun-30 22:31N 33°45' W 118°12'0 0.0
2015-Jun-30 21:31N 33°45' W 118°12'0 0.0
2015-Jun-30 20:31N 33°45' W 118°12'0 0.0
2015-Jun-30 19:31N 33°45' W 118°12'0 0.0
2015-Jun-30 18:31N 33°45' W 118°12'0 0.0
2015-Jun-30 17:31N 33°45' W 118°12'0 0.0
2015-Jun-30 16:31N 33°45' W 118°12'0 0.0
2015-Jun-30 15:31N 33°45' W 118°12'0 0.0
2015-Jun-30 14:31N 33°45' W 118°12'1 0.9
2015-Jun-30 13:33N 33°44' W 118°12'8 7.8
2015-Jun-30 12:33N 33°36' W 118°13'10 9.8
2015-Jun-30 11:33N 33°38' W 118°25'1110.6
2015-Jun-30 10:33N 33°43' W 118°36'1110.8
2015-Jun-30 09:33N 33°49' W 118°47'1211.6
2015-Jun-30 08:33N 33°54' W 118°59'1212.0
2015-Jun-30 07:33N 34°00' W 119°12'1313.1
2015-Jun-30 06:33N 34°05' W 119°27'1313.1
2015-Jun-30 05:33N 34°08' W 119°42'1312.9
2015-Jun-30 04:33N 34°11' W 119°57'1110.6
2015-Jun-30 03:33N 34°14' W 120°09'1312.4
2015-Jun-30 02:31N 34°18' W 120°24'3411.6
2015-Jun-29 23:33N 34°33' W 121°02'1312.9
2015-Jun-29 22:33N 34°43' W 121°12'1414.2
2015-Jun-29 21:33N 34°54' W 121°23'1414.3
2015-Jun-29 20:33N 35°04' W 121°35'1414.2
2015-Jun-29 19:33N 35°15' W 121°46'1515.0
2015-Jun-29 18:33N 35°27' W 121°58'1615.8
2015-Jun-29 17:33N 35°39' W 122°11'1515.4
2015-Jun-29 16:33N 35°50' W 122°23'1615.6
2015-Jun-29 15:33N 36°02' W 122°35'1515.4
2015-Jun-29 14:33N 36°14' W 122°48'1515.4
2015-Jun-29 13:33N 36°26' W 123°00'1615.7
2015-Jun-29 12:33N 36°40' W 123°08'1615.6
2015-Jun-29 11:33N 36°54' W 123°17'1515.4
2015-Jun-29 10:33N 37°08' W 123°24'1615.8
2015-Jun-29 09:33N 37°23' W 123°33'1616.0
2015-Jun-29 08:33N 37°37' W 123°41'1616.1
2015-Jun-29 07:33N 37°52' W 123°50'1515.5
2015-Jun-29 06:33N 38°06' W 123°58'1515.2
2015-Jun-29 05:33N 38°20' W 124°06'1615.5
2015-Jun-29 04:33N 38°34' W 124°14'1815.5
2015-Jun-29 03:22N 38°51' W 124°24'1815.4
2015-Jun-29 02:10N 39°07' W 124°34'1015.4
2015-Jun-29 01:32N 39°16' W 124°39'39214.3
2015-Jun-27 22:09N 45°48' W 125°16'914.9
2015-Jun-27 21:33N 45°57' W 125°17'1515.0
2015-Jun-27 20:32N 46°12' W 125°17'3414.9
2015-Jun-27 18:13N 46°46' W 125°20'1214.8
2015-Jun-27 17:26N 46°58' W 125°18'1415.6
2015-Jun-27 16:33N 47°12' W 125°19'1715.9
2015-Jun-27 15:29N 47°29' W 125°19'1515.7
2015-Jun-27 14:33N 47°43' W 125°20'1616.0
2015-Jun-27 13:33N 47°59' W 125°17'1616.1
2015-Jun-27 12:33N 48°15' W 125°11'1615.7
2015-Jun-27 11:33N 48°29' W 125°02'1615.8
2015-Jun-27 10:33N 48°29' W 124°38'1716.9
2015-Jun-27 09:33N 48°22' W 124°15'1616.5
2015-Jun-27 08:33N 48°17' W 123°52'1616.0
2015-Jun-27 07:33N 48°13' W 123°28'1212.1
2015-Jun-27 06:33N 48°11' W 123°10'1616.4
2015-Jun-27 05:33N 48°11' W 122°46'1716.6
2015-Jun-27 04:33N 47°57' W 122°32'1716.8
2015-Jun-27 03:34N 47°40' W 122°27'1817.5
2015-Jun-27 02:33N 47°23' W 122°22'7 7.4
2015-Jun-27 01:33N 47°16' W 122°24'0 0.5
2015-Jun-27 00:30N 47°16' W 122°23'0 0.0
2015-Jun-26 22:30N 47°16' W 122°23'0 0.0
2015-Jun-26 17:30N 47°16' W 122°23'0 0.0
2015-Jun-26 16:29N 47°16' W 122°23'0 0.0
2015-Jun-26 15:25N 47°16' W 122°23'0 0.0
2015-Jun-26 14:32N 47°16' W 122°23'0 0.0
2015-Jun-26 13:33N 47°16' W 122°23'0 0.0
2015-Jun-26 12:31N 47°16' W 122°23'2 1.8
2015-Jun-26 11:33N 47°17' W 122°25'1010.1
2015-Jun-26 10:34N 47°27' W 122°25'1817.8
2015-Jun-26 09:33N 47°45' W 122°27'1716.8
2015-Jun-26 08:34N 47°60' W 122°37'1616.2
2015-Jun-26 07:33N 48°11' W 122°55'1817.7
2015-Jun-26 06:33N 48°11' W 123°22'1414.4
2015-Jun-26 05:33N 48°12' W 123°43'1616.4
2015-Jun-26 04:34N 48°17' W 124°06'1716.7
2015-Jun-26 03:34N 48°24' W 124°29'1616.2
2015-Jun-26 02:33N 48°29' W 124°53'1716.6
2015-Jun-26 01:33N 48°29' W 125°18'1716.7
2015-Jun-26 00:33N 48°28' W 125°43'1616.6
2015-Jun-25 23:33N 48°28' W 126°08'1616.2
2015-Jun-25 22:33N 48°28' W 126°32'1414.3
2015-Jun-25 21:33N 48°28' W 126°54'  
Track history (hours):
 
Tides and Currents Weather Stations Pressure Air Temp Water Temp Dewpoint Dewpoint Depression Visibility Wind Speed Wind Dir Waves Ship Positions

Oberon

Last reported at 2015-Jul-01 16:23 UTC. Time now 2015-Jul-08 00:06 UTC.
Position N 31°06' W 117°09'.

Length 232 m; draft 10.2 m.

Type: Cargo ship. MMSI: 266283000.

Date/timePositionNaut miles runAvg speedWind from/ knotsBaromVisibWave heightAir tempDewpointWater temp
2015-Jul-01 16:23N 31°06' W 117°09'1518.0
2015-Jul-01 15:33N 31°20' W 117°15'1918.5
2015-Jul-01 14:31N 31°38' W 117°23'1918.8
2015-Jul-01 13:32N 31°55' W 117°30'1919.3
2015-Jul-01 12:33N 32°13' W 117°38'1818.1
2015-Jul-01 11:33N 32°30' W 117°45'1615.5
2015-Jul-01 10:33N 32°45' W 117°51'1515.5
2015-Jul-01 09:33N 32°59' W 117°58'1212.1
2015-Jul-01 08:33N 33°11' W 118°02'1211.5
2015-Jul-01 07:34N 33°21' W 118°07'1211.5
2015-Jul-01 06:33N 33°32' W 118°12'1110.7
2015-Jul-01 05:33N 33°43' W 118°11'2 1.9
2015-Jul-01 04:31N 33°45' W 118°12'0 0.0
2015-Jul-01 03:31N 33°45' W 118°12'0 0.0
2015-Jul-01 02:31N 33°45' W 118°12'0 0.0
2015-Jul-01 01:31N 33°45' W 118°12'0 0.0
2015-Jul-01 00:31N 33°45' W 118°12'0 0.0
2015-Jun-30 23:31N 33°45' W 118°12'0 0.0
2015-Jun-30 22:31N 33°45' W 118°12'0 0.0
2015-Jun-30 21:31N 33°45' W 118°12'0 0.0
2015-Jun-30 20:31N 33°45' W 118°12'0 0.0
2015-Jun-30 19:31N 33°45' W 118°12'0 0.0
2015-Jun-30 18:31N 33°45' W 118°12'0 0.0
2015-Jun-30 17:31N 33°45' W 118°12'0 0.0
2015-Jun-30 16:31N 33°45' W 118°12'0 0.0
2015-Jun-30 15:31N 33°45' W 118°12'0 0.0
2015-Jun-30 14:31N 33°45' W 118°12'1 0.9
2015-Jun-30 13:33N 33°44' W 118°12'8 7.8
2015-Jun-30 12:33N 33°36' W 118°13'10 9.8
2015-Jun-30 11:33N 33°38' W 118°25'1110.6
2015-Jun-30 10:33N 33°43' W 118°36'1110.8
2015-Jun-30 09:33N 33°49' W 118°47'1211.6
2015-Jun-30 08:33N 33°54' W 118°59'1212.0
2015-Jun-30 07:33N 34°00' W 119°12'1313.1
2015-Jun-30 06:33N 34°05' W 119°27'1313.1
2015-Jun-30 05:33N 34°08' W 119°42'1312.9
2015-Jun-30 04:33N 34°11' W 119°57'1110.6
2015-Jun-30 03:33N 34°14' W 120°09'1312.4
2015-Jun-30 02:31N 34°18' W 120°24'3411.6
2015-Jun-29 23:33N 34°33' W 121°02'1312.9
2015-Jun-29 22:33N 34°43' W 121°12'1414.2
2015-Jun-29 21:33N 34°54' W 121°23'1414.3
2015-Jun-29 20:33N 35°04' W 121°35'1414.2
2015-Jun-29 19:33N 35°15' W 121°46'1515.0
2015-Jun-29 18:33N 35°27' W 121°58'1615.8
2015-Jun-29 17:33N 35°39' W 122°11'1515.4
2015-Jun-29 16:33N 35°50' W 122°23'1615.6
2015-Jun-29 15:33N 36°02' W 122°35'1515.4
2015-Jun-29 14:33N 36°14' W 122°48'1515.4
2015-Jun-29 13:33N 36°26' W 123°00'1615.7
2015-Jun-29 12:33N 36°40' W 123°08'1615.6
2015-Jun-29 11:33N 36°54' W 123°17'1515.4
2015-Jun-29 10:33N 37°08' W 123°24'1615.8
2015-Jun-29 09:33N 37°23' W 123°33'1616.0
2015-Jun-29 08:33N 37°37' W 123°41'1616.1
2015-Jun-29 07:33N 37°52' W 123°50'1515.5
2015-Jun-29 06:33N 38°06' W 123°58'1515.2
2015-Jun-29 05:33N 38°20' W 124°06'1615.5
2015-Jun-29 04:33N 38°34' W 124°14'1815.5
2015-Jun-29 03:22N 38°51' W 124°24'1815.4
2015-Jun-29 02:10N 39°07' W 124°34'1015.4
2015-Jun-29 01:32N 39°16' W 124°39'39214.3
2015-Jun-27 22:09N 45°48' W 125°16'914.9
2015-Jun-27 21:33N 45°57' W 125°17'1515.0
2015-Jun-27 20:32N 46°12' W 125°17'3414.9
2015-Jun-27 18:13N 46°46' W 125°20'1214.8
2015-Jun-27 17:26N 46°58' W 125°18'1415.6
2015-Jun-27 16:33N 47°12' W 125°19'1715.9
2015-Jun-27 15:29N 47°29' W 125°19'1515.7
2015-Jun-27 14:33N 47°43' W 125°20'1616.0
2015-Jun-27 13:33N 47°59' W 125°17'1616.1
2015-Jun-27 12:33N 48°15' W 125°11'1615.7
2015-Jun-27 11:33N 48°29' W 125°02'1615.8
2015-Jun-27 10:33N 48°29' W 124°38'1716.9
2015-Jun-27 09:33N 48°22' W 124°15'1616.5
2015-Jun-27 08:33N 48°17' W 123°52'1616.0
2015-Jun-27 07:33N 48°13' W 123°28'1212.1
2015-Jun-27 06:33N 48°11' W 123°10'1616.4
2015-Jun-27 05:33N 48°11' W 122°46'1716.6
2015-Jun-27 04:33N 47°57' W 122°32'1716.8
2015-Jun-27 03:34N 47°40' W 122°27'1817.5
2015-Jun-27 02:33N 47°23' W 122°22'7 7.4
2015-Jun-27 01:33N 47°16' W 122°24'0 0.5
2015-Jun-27 00:30N 47°16' W 122°23'0 0.0
2015-Jun-26 22:30N 47°16' W 122°23'0 0.0
2015-Jun-26 17:30N 47°16' W 122°23'0 0.0
2015-Jun-26 16:29N 47°16' W 122°23'0 0.0
2015-Jun-26 15:25N 47°16' W 122°23'0 0.0
2015-Jun-26 14:32N 47°16' W 122°23'0 0.0
2015-Jun-26 13:33N 47°16' W 122°23'0 0.0
2015-Jun-26 12:31N 47°16' W 122°23'2 1.8
2015-Jun-26 11:33N 47°17' W 122°25'1010.1
2015-Jun-26 10:34N 47°27' W 122°25'1817.8
2015-Jun-26 09:33N 47°45' W 122°27'1716.8
2015-Jun-26 08:34N 47°60' W 122°37'1616.2
2015-Jun-26 07:33N 48°11' W 122°55'1817.7
2015-Jun-26 06:33N 48°11' W 123°22'1414.4
2015-Jun-26 05:33N 48°12' W 123°43'1616.4
2015-Jun-26 04:34N 48°17' W 124°06'1716.7
2015-Jun-26 03:34N 48°24' W 124°29'1616.2
2015-Jun-26 02:33N 48°29' W 124°53'1716.6
2015-Jun-26 01:33N 48°29' W 125°18'1716.7
2015-Jun-26 00:33N 48°28' W 125°43'1616.6
2015-Jun-25 23:33N 48°28' W 126°08'1616.2
2015-Jun-25 22:33N 48°28' W 126°32'1414.3
2015-Jun-25 21:33N 48°28' W 126°54'  

Dump ship's entire track history